• Join FlightAware (Why Join?)
  • Login
  • US Flag 
04:57AM EDT


 

Airport Tracker/Info


-or-


 

Live Flight TrackerFlight Track Log ✈ AWE1494 ✈ 27-Jul-2013 ✈ KJAX - KCLT

Flight Track Log - Related Links

Times and Time Zones

All times are in EDT time to prevent confusion due to time zone crossing. See the AWE1494 flight status page for this flight to view local times or setup timezone preferences in your user account.

Time Position Orientation Groundspeed Altitude Reporting Facility
EDT Latitude Longitude Course Direction KTS MPH feet Rate Location/Type
09:59AM 30.5069 -81.6725 21° North 171 197 500  Level Jacksonville Center
10:00AM 30.5419 -81.6117 56° Northeast 241 277 3,000 2,160 Climbing Jacksonville Center
10:01AM 30.6086 -81.6108 North 262 302 5,400 2,520 Climbing Jacksonville Center
10:02AM 30.7126 -81.4308 44° Northeast  Level FlightAware Approximate
10:02AM 30.6881 -81.6172 356° North 291 335 8,300  Level Jacksonville Center
10:03AM 30.7887 -81.3460 33° Northeast  Level FlightAware Approximate
10:03AM 30.7717 -81.6183 359° North 291 335 11,000  Level Jacksonville Center
10:04AM 30.8672 -81.2765 19° North  Level FlightAware Approximate
10:04AM 30.8719 -81.6219 358° North 317 365 12,900  Level Jacksonville Center
10:05AM 30.9666 -81.2355 21° North  Level FlightAware Approximate
10:05AM 30.9806 -81.6278 357° North 359 413 15,600  Level Jacksonville Center
10:06AM 31.0956 -81.6311 359° North 393 452 18,200 2,880 Climbing Jacksonville Center
10:07AM 31.2042 -81.6344 358° North 398 458 21,400 2,400 Climbing Jacksonville Center
10:08AM 31.3106 -81.6331 North 393 452 23,000 1,320 Climbing Jacksonville Center
10:09AM 31.4317 -81.6314 North 383 441 24,100 1,020 Climbing Jacksonville Center
10:10AM 31.5294 -81.6106 10° North 390 449 25,100 480 Climbing Jacksonville Center
10:11AM 31.6372 -81.5383 30° Northeast 394 453 25,100  Level Jacksonville Center
10:12AM 31.7369 -81.4733 29° Northeast 400 460 25,100  Level Jacksonville Center
10:13AM 31.8258 -81.4156 29° Northeast 405 466 25,100 -60 Level Jacksonville Center
10:14AM 31.9275 -81.3481 29° Northeast 411 473 25,000 -60 Descending Jacksonville Center
10:15AM 32.0331 -81.2753 30° Northeast 417 480 25,000  Level Jacksonville Center
10:16AM 32.1469 -81.1994 29° Northeast 441 507 25,000  Level Jacksonville Center
10:17AM 32.2608 -81.1261 29° Northeast 452 520 25,000  Level Jacksonville Center
10:18AM 32.3828 -81.0475 29° Northeast 457 526 25,100  Climbing Jacksonville Center
10:19AM 32.4861 -80.9764 30° Northeast 453 521 25,000 -60 Descending Jacksonville Center
10:20AM 32.5978 -80.9025 29° Northeast 458 527 25,000  Level Jacksonville Center
10:21AM 32.7092 -80.8286 29° Northeast 458 527 25,000  Level Jacksonville Center
10:22AM 32.8228 -80.7519 30° Northeast 458 527 25,000  Level Jacksonville Center
10:23AM 32.9361 -80.6750 30° Northeast 458 527 25,000 -420 Level Jacksonville Center
10:24AM 33.0600 -80.5925 29° Northeast 458 527 24,200 -600 Descending Jacksonville Center
10:25AM 33.1753 -80.5150 29° Northeast 458 527 23,800 -780 Descending Jacksonville Center
10:26AM 33.2847 -80.4425 29° Northeast 458 527 22,700 -1,020 Descending Jacksonville Center
10:27AM 33.4072 -80.4169 10° North 438 504 21,800 -960 Descending Jacksonville Center
10:28AM 33.5303 -80.4108 North 438 504 20,800 -960 Descending Jacksonville Center
10:29AM 33.6553 -80.4050 North 443 510 19,900 -900 Descending Jacksonville Center
10:30AM 33.7783 -80.3989 North 443 510 19,000 -480 Descending Jacksonville Center
10:31AM 33.8992 -80.3906 North 436 502 19,000  Level Jacksonville Center
10:32AM 34.0200 -80.3819 North 436 502 19,000  Level Jacksonville Center
10:33AM 34.1450 -80.3733 North 441 507 19,000 -300 Level Jacksonville Center
10:34AM 34.2681 -80.3672 North 441 507 18,400 -1,140 Descending Jacksonville Center
10:35AM 34.3828 -80.3614 North 430 495 16,800 -2,220 Descending Jacksonville Center
10:37AM 34.6133 -80.3489 North 391 450 11,700 -1,860 Descending Atlanta Center
10:38AM 34.7181 -80.3594 355° North 313 360 11,000 -840 Descending Atlanta Center
10:39AM 34.7722 -80.4278 314° West 290 334 10,100 -480 Descending Atlanta Center
10:40AM 34.8283 -80.4989 314° West 294 338 10,100  Level Atlanta Center
10:41AM 34.8869 -80.5722 314° West 299 344 10,100 -60 Level Atlanta Center
10:42AM 34.9453 -80.6433 315° West 302 348 10,000 -60 Descending Atlanta Center
10:43AM 35.0078 -80.7219 314° West 300 345 10,000 -360 Level Atlanta Center
10:44AM 35.0681 -80.7931 316° Northwest 300 345 9,300 -540 Descending Atlanta Center
10:45AM 35.1436 -80.8053 352° North 309 356 9,000 -180 Descending Atlanta Center
10:47AM 35.2317 -80.8172 354° North 288 331 9,000 -660 Level Atlanta Center
10:48AM 35.3111 -80.8294 353° North 254 292 7,700 -1,320 Descending Atlanta Center
10:49AM 35.3886 -80.8392 354° North 255 293 6,300 -1,200 Descending Atlanta Center
10:50AM 35.4556 -80.8467 355° North 252 290 5,200 -1,080 Descending Atlanta Center
10:51AM 35.4742 -80.9147 289° West 192 221 4,200 -660 Descending Atlanta Center
10:52AM 35.4564 -80.9536 241° Southwest 154 177 4,000 -120 Descending Atlanta Center
10:53AM 35.4083 -80.9556 182° South 162 186 4,000 -240 Level Atlanta Center
10:54AM 35.3706 -80.9519 176° South 166 191 3,600 -720 Descending Atlanta Center
10:55AM 35.3183 -80.9486 177° South 166 191 2,600 -900 Descending Atlanta Center
10:56AM 35.2767 -80.9428 173° South 150 173 1,800 -780 Descending Atlanta Center
10:57AM 35.2389 -80.9414 178° South 141 162 1,100 -780 Descending Atlanta Center